sensor_id;sensor_type;location;lat;lon;timestamp;temperature;humidity
60495;DHT22;46342;49.046;11.920;2023-03-03T00:00:48;5.30;50.90
60495;DHT22;46342;49.046;11.920;2023-03-03T00:03:17;5.20;50.90
60495;DHT22;46342;49.046;11.920;2023-03-03T00:05:43;5.20;51.00
60495;DHT22;46342;49.046;11.920;2023-03-03T00:08:09;5.10;51.00
60495;DHT22;46342;49.046;11.920;2023-03-03T00:10:36;5.10;51.00
60495;DHT22;46342;49.046;11.920;2023-03-03T00:13:01;5.10;51.10
60495;DHT22;46342;49.046;11.920;2023-03-03T00:15:28;5.10;51.10
60495;DHT22;46342;49.046;11.920;2023-03-03T00:17:54;5.00;51.00
60495;DHT22;46342;49.046;11.920;2023-03-03T00:20:34;5.00;51.00
60495;DHT22;46342;49.046;11.920;2023-03-03T00:23:12;4.90;51.00
60495;DHT22;46342;49.046;11.920;2023-03-03T00:25:43;4.90;51.20
60495;DHT22;46342;49.046;11.920;2023-03-03T00:28:38;4.80;51.10
60495;DHT22;46342;49.046;11.920;2023-03-03T00:33:50;4.80;51.30
60495;DHT22;46342;49.046;11.920;2023-03-03T00:36:35;4.70;51.50
60495;DHT22;46342;49.046;11.920;2023-03-03T00:39:17;4.70;51.20
60495;DHT22;46342;49.046;11.920;2023-03-03T00:41:43;4.60;51.20
60495;DHT22;46342;49.046;11.920;2023-03-03T00:46:57;4.60;51.40
60495;DHT22;46342;49.046;11.920;2023-03-03T00:49:27;4.50;51.40
60495;DHT22;46342;49.046;11.920;2023-03-03T00:51:53;4.50;51.00
60495;DHT22;46342;49.046;11.920;2023-03-03T00:54:18;4.40;51.00
60495;DHT22;46342;49.046;11.920;2023-03-03T00:56:44;4.40;51.10
60495;DHT22;46342;49.046;11.920;2023-03-03T00:59:10;4.40;51.20
60495;DHT22;46342;49.046;11.920;2023-03-03T01:01:35;4.30;51.20
60495;DHT22;46342;49.046;11.920;2023-03-03T01:04:01;4.30;51.20
60495;DHT22;46342;49.046;11.920;2023-03-03T01:06:26;4.30;51.30
60495;DHT22;46342;49.046;11.920;2023-03-03T01:08:52;4.20;51.20
60495;DHT22;46342;49.046;11.920;2023-03-03T01:11:23;4.20;51.40
60495;DHT22;46342;49.046;11.920;2023-03-03T01:13:50;4.20;51.50
60495;DHT22;46342;49.046;11.920;2023-03-03T01:16:16;4.20;51.40
60495;DHT22;46342;49.046;11.920;2023-03-03T01:18:42;4.10;51.30
60495;DHT22;46342;49.046;11.920;2023-03-03T01:21:09;4.10;51.40
60495;DHT22;46342;49.046;11.920;2023-03-03T01:23:35;4.10;51.40
60495;DHT22;46342;49.046;11.920;2023-03-03T01:26:00;4.10;51.40
60495;DHT22;46342;49.046;11.920;2023-03-03T01:28:26;4.00;52.00
60495;DHT22;46342;49.046;11.920;2023-03-03T01:30:51;4.00;51.40
60495;DHT22;46342;49.046;11.920;2023-03-03T01:33:17;4.00;51.50
60495;DHT22;46342;49.046;11.920;2023-03-03T01:35:44;4.00;51.50
60495;DHT22;46342;49.046;11.920;2023-03-03T01:38:10;3.90;51.50
60495;DHT22;46342;49.046;11.920;2023-03-03T01:40:36;3.90;51.50
60495;DHT22;46342;49.046;11.920;2023-03-03T01:43:01;3.90;51.50
60495;DHT22;46342;49.046;11.920;2023-03-03T01:48:27;3.90;52.10
60495;DHT22;46342;49.046;11.920;2023-03-03T01:51:02;3.90;52.00
60495;DHT22;46342;49.046;11.920;2023-03-03T01:53:37;3.80;51.70
60495;DHT22;46342;49.046;11.920;2023-03-03T01:56:05;3.80;51.80
60495;DHT22;46342;49.046;11.920;2023-03-03T01:58:44;3.70;51.70
60495;DHT22;46342;49.046;11.920;2023-03-03T02:01:14;3.70;52.00
60495;DHT22;46342;49.046;11.920;2023-03-03T02:03:42;3.70;51.90
60495;DHT22;46342;49.046;11.920;2023-03-03T02:06:12;3.70;52.40
60495;DHT22;46342;49.046;11.920;2023-03-03T02:11:10;3.60;51.90
60495;DHT22;46342;49.046;11.920;2023-03-03T02:13:36;3.60;51.80
60495;DHT22;46342;49.046;11.920;2023-03-03T02:16:02;3.60;51.80
60495;DHT22;46342;49.046;11.920;2023-03-03T02:18:28;3.50;51.70
60495;DHT22;46342;49.046;11.920;2023-03-03T02:23:41;3.50;51.90
60495;DHT22;46342;49.046;11.920;2023-03-03T02:26:15;3.50;52.00
60495;DHT22;46342;49.046;11.920;2023-03-03T02:28:41;3.50;52.00
60495;DHT22;46342;49.046;11.920;2023-03-03T02:31:13;3.40;51.90
60495;DHT22;46342;49.046;11.920;2023-03-03T02:33:41;3.50;52.10
60495;DHT22;46342;49.046;11.920;2023-03-03T02:36:30;3.50;52.10
60495;DHT22;46342;49.046;11.920;2023-03-03T02:39:13;3.40;52.20
60495;DHT22;46342;49.046;11.920;2023-03-03T02:41:59;3.40;52.40
60495;DHT22;46342;49.046;11.920;2023-03-03T02:44:28;3.40;52.60
60495;DHT22;46342;49.046;11.920;2023-03-03T02:46:56;3.40;52.20
60495;DHT22;46342;49.046;11.920;2023-03-03T02:49:31;3.50;52.30
60495;DHT22;46342;49.046;11.920;2023-03-03T02:51:57;3.40;52.60
60495;DHT22;46342;49.046;11.920;2023-03-03T02:54:25;3.40;52.40
60495;DHT22;46342;49.046;11.920;2023-03-03T02:56:52;3.50;52.50
60495;DHT22;46342;49.046;11.920;2023-03-03T02:59:18;3.50;52.50
60495;DHT22;46342;49.046;11.920;2023-03-03T03:01:45;3.50;52.50
60495;DHT22;46342;49.046;11.920;2023-03-03T03:04:14;3.50;53.10
60495;DHT22;46342;49.046;11.920;2023-03-03T03:06:40;3.50;52.60
60495;DHT22;46342;49.046;11.920;2023-03-03T03:09:07;3.50;52.50
60495;DHT22;46342;49.046;11.920;2023-03-03T03:11:34;3.50;52.60
60495;DHT22;46342;49.046;11.920;2023-03-03T03:14:00;3.50;52.50
60495;DHT22;46342;49.046;11.920;2023-03-03T03:16:26;3.50;52.50
60495;DHT22;46342;49.046;11.920;2023-03-03T03:18:52;3.50;52.50
60495;DHT22;46342;49.046;11.920;2023-03-03T03:21:17;3.50;52.50
60495;DHT22;46342;49.046;11.920;2023-03-03T03:23:44;3.50;52.50
60495;DHT22;46342;49.046;11.920;2023-03-03T03:26:10;3.50;52.50
60495;DHT22;46342;49.046;11.920;2023-03-03T03:28:36;3.50;52.50
60495;DHT22;46342;49.046;11.920;2023-03-03T03:31:02;3.50;52.40
60495;DHT22;46342;49.046;11.920;2023-03-03T03:33:28;3.50;52.40
60495;DHT22;46342;49.046;11.920;2023-03-03T03:35:54;3.50;52.40
60495;DHT22;46342;49.046;11.920;2023-03-03T03:38:20;3.50;52.40
60495;DHT22;46342;49.046;11.920;2023-03-03T03:40:46;3.50;52.40
60495;DHT22;46342;49.046;11.920;2023-03-03T03:43:12;3.40;52.30
60495;DHT22;46342;49.046;11.920;2023-03-03T03:45:37;3.40;52.30
60495;DHT22;46342;49.046;11.920;2023-03-03T03:48:03;3.40;52.90
60495;DHT22;46342;49.046;11.920;2023-03-03T03:50:29;3.40;52.30
60495;DHT22;46342;49.046;11.920;2023-03-03T03:52:55;3.40;52.30
60495;DHT22;46342;49.046;11.920;2023-03-03T03:55:20;3.30;52.20
60495;DHT22;46342;49.046;11.920;2023-03-03T03:57:47;3.30;52.20
60495;DHT22;46342;49.046;11.920;2023-03-03T04:00:13;3.30;52.20
60495;DHT22;46342;49.046;11.920;2023-03-03T04:02:39;3.30;52.20
60495;DHT22;46342;49.046;11.920;2023-03-03T04:05:05;3.30;52.20
60495;DHT22;46342;49.046;11.920;2023-03-03T04:07:30;3.20;52.20
60495;DHT22;46342;49.046;11.920;2023-03-03T04:09:56;3.20;52.20
60495;DHT22;46342;49.046;11.920;2023-03-03T04:12:21;3.20;52.20
60495;DHT22;46342;49.046;11.920;2023-03-03T04:14:47;3.20;52.20
60495;DHT22;46342;49.046;11.920;2023-03-03T04:17:20;3.20;52.30
60495;DHT22;46342;49.046;11.920;2023-03-03T04:19:46;3.10;52.40
60495;DHT22;46342;49.046;11.920;2023-03-03T04:22:12;3.10;52.20
60495;DHT22;46342;49.046;11.920;2023-03-03T04:24:39;3.10;52.20
60495;DHT22;46342;49.046;11.920;2023-03-03T04:27:05;3.10;52.20
60495;DHT22;46342;49.046;11.920;2023-03-03T04:29:33;3.00;52.10
60495;DHT22;46342;49.046;11.920;2023-03-03T04:31:58;3.00;52.20
60495;DHT22;46342;49.046;11.920;2023-03-03T04:34:24;3.00;52.20
60495;DHT22;46342;49.046;11.920;2023-03-03T04:36:49;3.00;52.20
60495;DHT22;46342;49.046;11.920;2023-03-03T04:39:15;2.90;52.10
60495;DHT22;46342;49.046;11.920;2023-03-03T04:41:41;2.90;52.20
60495;DHT22;46342;49.046;11.920;2023-03-03T04:44:07;2.90;52.20
60495;DHT22;46342;49.046;11.920;2023-03-03T04:46:32;2.90;52.20
60495;DHT22;46342;49.046;11.920;2023-03-03T04:48:58;2.90;52.20
60495;DHT22;46342;49.046;11.920;2023-03-03T04:51:24;2.80;52.20
60495;DHT22;46342;49.046;11.920;2023-03-03T04:53:49;2.80;52.20
60495;DHT22;46342;49.046;11.920;2023-03-03T04:56:15;2.80;52.30
60495;DHT22;46342;49.046;11.920;2023-03-03T04:58:40;2.80;52.40
60495;DHT22;46342;49.046;11.920;2023-03-03T05:01:06;2.80;52.40
60495;DHT22;46342;49.046;11.920;2023-03-03T05:03:32;2.70;52.30
60495;DHT22;46342;49.046;11.920;2023-03-03T05:05:57;2.70;52.30
60495;DHT22;46342;49.046;11.920;2023-03-03T05:08:23;2.70;52.30
60495;DHT22;46342;49.046;11.920;2023-03-03T05:10:53;2.70;52.30
60495;DHT22;46342;49.046;11.920;2023-03-03T05:13:19;2.70;52.40
60495;DHT22;46342;49.046;11.920;2023-03-03T05:15:52;2.60;52.30
60495;DHT22;46342;49.046;11.920;2023-03-03T05:18:20;2.60;52.50
60495;DHT22;46342;49.046;11.920;2023-03-03T05:20:45;2.60;52.30
60495;DHT22;46342;49.046;11.920;2023-03-03T05:23:11;2.60;52.40
60495;DHT22;46342;49.046;11.920;2023-03-03T05:25:36;2.60;52.50
60495;DHT22;46342;49.046;11.920;2023-03-03T05:28:04;2.50;52.40
60495;DHT22;46342;49.046;11.920;2023-03-03T05:30:29;2.50;52.40
60495;DHT22;46342;49.046;11.920;2023-03-03T05:32:55;2.50;52.50
60495;DHT22;46342;49.046;11.920;2023-03-03T05:35:23;2.50;52.50
60495;DHT22;46342;49.046;11.920;2023-03-03T05:37:49;2.60;53.10
60495;DHT22;46342;49.046;11.920;2023-03-03T05:40:14;2.50;52.40
60495;DHT22;46342;49.046;11.920;2023-03-03T05:42:40;2.50;52.50
60495;DHT22;46342;49.046;11.920;2023-03-03T05:45:06;2.50;52.50
60495;DHT22;46342;49.046;11.920;2023-03-03T05:47:32;2.50;52.60
60495;DHT22;46342;49.046;11.920;2023-03-03T05:49:58;2.50;52.70
60495;DHT22;46342;49.046;11.920;2023-03-03T05:52:23;2.50;52.80
60495;DHT22;46342;49.046;11.920;2023-03-03T05:54:49;2.50;52.80
60495;DHT22;46342;49.046;11.920;2023-03-03T05:57:15;2.50;52.80
60495;DHT22;46342;49.046;11.920;2023-03-03T05:59:40;2.50;52.90
60495;DHT22;46342;49.046;11.920;2023-03-03T06:02:06;2.50;52.90
60495;DHT22;46342;49.046;11.920;2023-03-03T06:04:32;2.50;53.00
60495;DHT22;46342;49.046;11.920;2023-03-03T06:06:57;2.50;53.00
60495;DHT22;46342;49.046;11.920;2023-03-03T06:09:23;2.50;52.90
60495;DHT22;46342;49.046;11.920;2023-03-03T06:11:50;2.60;53.00
60495;DHT22;46342;49.046;11.920;2023-03-03T06:14:18;2.60;53.00
60495;DHT22;46342;49.046;11.920;2023-03-03T06:16:45;2.60;53.00
60495;DHT22;46342;49.046;11.920;2023-03-03T06:19:10;2.60;53.00
60495;DHT22;46342;49.046;11.920;2023-03-03T06:21:36;2.60;53.00
60495;DHT22;46342;49.046;11.920;2023-03-03T06:24:02;2.60;52.90
60495;DHT22;46342;49.046;11.920;2023-03-03T06:26:27;2.60;52.90
60495;DHT22;46342;49.046;11.920;2023-03-03T06:28:53;2.60;52.90
60495;DHT22;46342;49.046;11.920;2023-03-03T06:31:20;2.60;52.90
60495;DHT22;46342;49.046;11.920;2023-03-03T06:33:45;2.60;52.90
60495;DHT22;46342;49.046;11.920;2023-03-03T06:36:11;2.60;53.50
60495;DHT22;46342;49.046;11.920;2023-03-03T06:38:36;2.60;52.90
60495;DHT22;46342;49.046;11.920;2023-03-03T06:41:02;2.60;52.90
60495;DHT22;46342;49.046;11.920;2023-03-03T06:43:34;2.60;52.90
60495;DHT22;46342;49.046;11.920;2023-03-03T06:46:01;2.60;52.90
60495;DHT22;46342;49.046;11.920;2023-03-03T06:48:26;2.60;52.90
60495;DHT22;46342;49.046;11.920;2023-03-03T06:50:52;2.60;52.90
60495;DHT22;46342;49.046;11.920;2023-03-03T06:53:18;2.60;52.90
60495;DHT22;46342;49.046;11.920;2023-03-03T06:55:44;2.60;52.90
60495;DHT22;46342;49.046;11.920;2023-03-03T06:58:18;2.60;52.90
60495;DHT22;46342;49.046;11.920;2023-03-03T07:03:18;2.60;53.00
60495;DHT22;46342;49.046;11.920;2023-03-03T07:05:46;2.60;52.90
60495;DHT22;46342;49.046;11.920;2023-03-03T07:08:20;2.60;52.90
60495;DHT22;46342;49.046;11.920;2023-03-03T07:10:47;2.60;53.10
60495;DHT22;46342;49.046;11.920;2023-03-03T07:13:21;2.60;53.00
60495;DHT22;46342;49.046;11.920;2023-03-03T07:16:00;2.60;53.10
60495;DHT22;46342;49.046;11.920;2023-03-03T07:18:34;2.60;53.30
60495;DHT22;46342;49.046;11.920;2023-03-03T07:23:39;2.60;53.30
60495;DHT22;46342;49.046;11.920;2023-03-03T07:26:11;2.60;53.20
60495;DHT22;46342;49.046;11.920;2023-03-03T07:28:40;2.60;53.30
60495;DHT22;46342;49.046;11.920;2023-03-03T07:33:51;2.70;53.60
60495;DHT22;46342;49.046;11.920;2023-03-03T07:36:34;2.70;53.30
60495;DHT22;46342;49.046;11.920;2023-03-03T07:39:03;2.70;53.50
60495;DHT22;46342;49.046;11.920;2023-03-03T07:41:29;2.70;53.40
60495;DHT22;46342;49.046;11.920;2023-03-03T07:44:04;2.80;53.50
60495;DHT22;46342;49.046;11.920;2023-03-03T07:46:50;2.80;53.60
60495;DHT22;46342;49.046;11.920;2023-03-03T07:49:34;2.90;54.50
60495;DHT22;46342;49.046;11.920;2023-03-03T07:52:01;3.00;53.90
60495;DHT22;46342;49.046;11.920;2023-03-03T07:54:44;3.00;53.70
60495;DHT22;46342;49.046;11.920;2023-03-03T07:59:37;3.10;53.60
60495;DHT22;46342;49.046;11.920;2023-03-03T08:02:13;3.20;53.70
60495;DHT22;46342;49.046;11.920;2023-03-03T08:04:44;3.30;53.80
60495;DHT22;46342;49.046;11.920;2023-03-03T08:07:17;3.40;53.80
60495;DHT22;46342;49.046;11.920;2023-03-03T08:14:46;3.60;53.70
60495;DHT22;46342;49.046;11.920;2023-03-03T08:19:44;3.80;53.70
60495;DHT22;46342;49.046;11.920;2023-03-03T08:22:19;3.80;53.60
60495;DHT22;46342;49.046;11.920;2023-03-03T08:24:47;3.90;53.50
60495;DHT22;46342;49.046;11.920;2023-03-03T08:27:13;4.00;53.60
60495;DHT22;46342;49.046;11.920;2023-03-03T08:29:38;4.10;53.60
60495;DHT22;46342;49.046;11.920;2023-03-03T08:32:04;4.20;53.70
60495;DHT22;46342;49.046;11.920;2023-03-03T08:34:30;4.30;53.80
60495;DHT22;46342;49.046;11.920;2023-03-03T08:36:55;4.40;53.80
60495;DHT22;46342;49.046;11.920;2023-03-03T08:39:22;4.50;53.70
60495;DHT22;46342;49.046;11.920;2023-03-03T08:41:48;4.60;53.70
60495;DHT22;46342;49.046;11.920;2023-03-03T08:44:14;4.70;53.80
60495;DHT22;46342;49.046;11.920;2023-03-03T08:46:39;4.80;53.80
60495;DHT22;46342;49.046;11.920;2023-03-03T08:49:05;4.90;53.80
60495;DHT22;46342;49.046;11.920;2023-03-03T08:51:30;5.10;53.80
60495;DHT22;46342;49.046;11.920;2023-03-03T08:53:58;5.20;53.80
60495;DHT22;46342;49.046;11.920;2023-03-03T08:56:24;5.30;53.70
60495;DHT22;46342;49.046;11.920;2023-03-03T08:58:49;5.40;53.70
60495;DHT22;46342;49.046;11.920;2023-03-03T09:01:15;5.60;53.70
60495;DHT22;46342;49.046;11.920;2023-03-03T09:03:42;5.70;53.80
60495;DHT22;46342;49.046;11.920;2023-03-03T09:06:07;5.80;53.70
60495;DHT22;46342;49.046;11.920;2023-03-03T09:08:33;5.90;53.70
60495;DHT22;46342;49.046;11.920;2023-03-03T09:10:59;6.10;53.70
60495;DHT22;46342;49.046;11.920;2023-03-03T09:13:26;6.20;54.10
60495;DHT22;46342;49.046;11.920;2023-03-03T09:15:53;6.30;53.50
60495;DHT22;46342;49.046;11.920;2023-03-03T09:18:41;6.50;53.50
60495;DHT22;46342;49.046;11.920;2023-03-03T09:21:29;6.60;53.40
60495;DHT22;46342;49.046;11.920;2023-03-03T09:24:00;6.80;53.00
60495;DHT22;46342;49.046;11.920;2023-03-03T09:26:30;6.90;53.10
60495;DHT22;46342;49.046;11.920;2023-03-03T09:31:47;7.20;52.30
60495;DHT22;46342;49.046;11.920;2023-03-03T09:36:46;7.40;52.60
60495;DHT22;46342;49.046;11.920;2023-03-03T09:39:19;7.50;52.80
60495;DHT22;46342;49.046;11.920;2023-03-03T09:42:03;7.50;52.60
60495;DHT22;46342;49.046;11.920;2023-03-03T09:47:26;7.80;52.60
60495;DHT22;46342;49.046;11.920;2023-03-03T09:50:18;7.90;52.50
60495;DHT22;46342;49.046;11.920;2023-03-03T09:53:16;8.00;52.10
60495;DHT22;46342;49.046;11.920;2023-03-03T10:11:56;8.90;52.90
60495;DHT22;46342;49.046;11.920;2023-03-03T10:17:06;9.20;52.70
60495;DHT22;46342;49.046;11.920;2023-03-03T10:19:38;9.30;52.00
60495;DHT22;46342;49.046;11.920;2023-03-03T10:29:43;9.80;52.30
60495;DHT22;46342;49.046;11.920;2023-03-03T10:32:27;9.90;52.20
60495;DHT22;46342;49.046;11.920;2023-03-03T10:40:25;10.30;51.50
60495;DHT22;46342;49.046;11.920;2023-03-03T10:55:13;11.10;50.60
60495;DHT22;46342;49.046;11.920;2023-03-03T10:58:12;11.20;50.20
60495;DHT22;46342;49.046;11.920;2023-03-03T11:18:15;12.00;49.50
60495;DHT22;46342;49.046;11.920;2023-03-03T11:20:51;12.00;49.60
60495;DHT22;46342;49.046;11.920;2023-03-03T11:26:40;12.10;50.00
60495;DHT22;46342;49.046;11.920;2023-03-03T11:29:21;12.20;49.40
60495;DHT22;46342;49.046;11.920;2023-03-03T11:37:11;12.50;49.30
60495;DHT22;46342;49.046;11.920;2023-03-03T11:39:41;12.50;50.00
60495;DHT22;46342;49.046;11.920;2023-03-03T11:45:18;12.70;49.30
60495;DHT22;46342;49.046;11.920;2023-03-03T11:53:21;13.00;50.10
60495;DHT22;46342;49.046;11.920;2023-03-03T11:55:56;13.10;50.30
60495;DHT22;46342;49.046;11.920;2023-03-03T11:58:32;13.20;49.10
60495;DHT22;46342;49.046;11.920;2023-03-03T12:11:25;13.50;48.70
60495;DHT22;46342;49.046;11.920;2023-03-03T12:16:57;13.60;47.90
60495;DHT22;46342;49.046;11.920;2023-03-03T12:19:42;13.60;49.10
60495;DHT22;46342;49.046;11.920;2023-03-03T12:22:33;13.70;48.60
60495;DHT22;46342;49.046;11.920;2023-03-03T12:25:32;13.80;47.90
60495;DHT22;46342;49.046;11.920;2023-03-03T12:30:58;13.90;48.40
60495;DHT22;46342;49.046;11.920;2023-03-03T12:36:57;14.00;48.60
60495;DHT22;46342;49.046;11.920;2023-03-03T12:39:29;14.10;48.40
60495;DHT22;46342;49.046;11.920;2023-03-03T12:48:09;14.40;48.60
60495;DHT22;46342;49.046;11.920;2023-03-03T12:51:09;14.50;48.00
60495;DHT22;46342;49.046;11.920;2023-03-03T13:05:27;14.90;47.90
60495;DHT22;46342;49.046;11.920;2023-03-03T13:08:17;15.00;48.30
60495;DHT22;46342;49.046;11.920;2023-03-03T13:10:55;15.10;47.30
60495;DHT22;46342;49.046;11.920;2023-03-03T13:13:34;15.10;48.00
60495;DHT22;46342;49.046;11.920;2023-03-03T13:16:11;15.20;48.00
60495;DHT22;46342;49.046;11.920;2023-03-03T13:18:59;15.20;47.70
60495;DHT22;46342;49.046;11.920;2023-03-03T13:21:29;15.30;47.20
60495;DHT22;46342;49.046;11.920;2023-03-03T13:26:52;15.40;47.10
60495;DHT22;46342;49.046;11.920;2023-03-03T13:29:19;15.40;46.90
60495;DHT22;46342;49.046;11.920;2023-03-03T13:31:55;15.50;47.00
60495;DHT22;46342;49.046;11.920;2023-03-03T13:37:00;15.40;47.00
60495;DHT22;46342;49.046;11.920;2023-03-03T13:39:39;15.40;46.80
60495;DHT22;46342;49.046;11.920;2023-03-03T13:44:48;15.40;46.30
60495;DHT22;46342;49.046;11.920;2023-03-03T13:59:02;15.30;46.60
60495;DHT22;46342;49.046;11.920;2023-03-03T14:04:57;15.30;45.40
60495;DHT22;46342;49.046;11.920;2023-03-03T14:07:38;15.30;45.10
60495;DHT22;46342;49.046;11.920;2023-03-03T14:10:18;15.30;45.70
60495;DHT22;46342;49.046;11.920;2023-03-03T14:13:07;15.20;45.60
60495;DHT22;46342;49.046;11.920;2023-03-03T14:18:40;15.20;45.70
60495;DHT22;46342;49.046;11.920;2023-03-03T14:31:54;15.30;45.70
60495;DHT22;46342;49.046;11.920;2023-03-03T14:36:50;15.30;46.20
60495;DHT22;46342;49.046;11.920;2023-03-03T14:39:37;15.30;46.20
60495;DHT22;46342;49.046;11.920;2023-03-03T14:42:31;15.30;45.80
60495;DHT22;46342;49.046;11.920;2023-03-03T14:44:59;15.30;44.70
60495;DHT22;46342;49.046;11.920;2023-03-03T14:47:26;15.30;45.90
60495;DHT22;46342;49.046;11.920;2023-03-03T14:49:55;15.30;46.00
60495;DHT22;46342;49.046;11.920;2023-03-03T14:52:29;15.30;45.90
60495;DHT22;46342;49.046;11.920;2023-03-03T14:54:59;15.30;45.60
60495;DHT22;46342;49.046;11.920;2023-03-03T15:00:29;15.30;45.00
60495;DHT22;46342;49.046;11.920;2023-03-03T15:03:19;15.40;44.80
60495;DHT22;46342;49.046;11.920;2023-03-03T15:05:51;15.40;45.10
60495;DHT22;46342;49.046;11.920;2023-03-03T15:08:31;15.40;45.20
60495;DHT22;46342;49.046;11.920;2023-03-03T15:13:42;15.40;44.80
60495;DHT22;46342;49.046;11.920;2023-03-03T15:16:18;15.40;45.80
60495;DHT22;46342;49.046;11.920;2023-03-03T15:21:32;15.40;44.70
60495;DHT22;46342;49.046;11.920;2023-03-03T15:24:20;15.40;44.90
60495;DHT22;46342;49.046;11.920;2023-03-03T15:26:53;15.40;44.30
60495;DHT22;46342;49.046;11.920;2023-03-03T15:29:45;15.30;45.40
60495;DHT22;46342;49.046;11.920;2023-03-03T15:32:22;15.30;44.10
60495;DHT22;46342;49.046;11.920;2023-03-03T15:34:56;15.30;45.30
60495;DHT22;46342;49.046;11.920;2023-03-03T15:37:48;15.30;44.90
60495;DHT22;46342;49.046;11.920;2023-03-03T15:48:36;15.30;44.60
60495;DHT22;46342;49.046;11.920;2023-03-03T16:04:41;15.20;45.20
60495;DHT22;46342;49.046;11.920;2023-03-03T16:07:49;15.20;45.00
60495;DHT22;46342;49.046;11.920;2023-03-03T16:21:45;15.00;44.30
60495;DHT22;46342;49.046;11.920;2023-03-03T16:25:01;14.90;44.50
60495;DHT22;46342;49.046;11.920;2023-03-03T16:27:38;14.80;44.10
60495;DHT22;46342;49.046;11.920;2023-03-03T16:30:25;14.80;44.60
60495;DHT22;46342;49.046;11.920;2023-03-03T16:35:25;14.60;44.80
60495;DHT22;46342;49.046;11.920;2023-03-03T16:38:02;14.50;44.50
60495;DHT22;46342;49.046;11.920;2023-03-03T16:45:42;14.20;44.30
60495;DHT22;46342;49.046;11.920;2023-03-03T16:48:26;14.10;44.70
60495;DHT22;46342;49.046;11.920;2023-03-03T16:53:58;13.90;44.10
60495;DHT22;46342;49.046;11.920;2023-03-03T16:59:17;13.70;44.20
60495;DHT22;46342;49.046;11.920;2023-03-03T17:04:57;13.50;44.00
60495;DHT22;46342;49.046;11.920;2023-03-03T17:10:26;13.20;44.00
60495;DHT22;46342;49.046;11.920;2023-03-03T17:15:55;13.00;44.00
60495;DHT22;46342;49.046;11.920;2023-03-03T17:24:58;12.60;44.00
60495;DHT22;46342;49.046;11.920;2023-03-03T17:30:34;12.30;43.90
60495;DHT22;46342;49.046;11.920;2023-03-03T17:36:11;12.10;44.40
60495;DHT22;46342;49.046;11.920;2023-03-03T17:38:40;12.00;44.20
60495;DHT22;46342;49.046;11.920;2023-03-03T17:46:42;11.60;44.10
60495;DHT22;46342;49.046;11.920;2023-03-03T17:55:35;11.20;44.10
60495;DHT22;46342;49.046;11.920;2023-03-03T18:01:27;11.00;44.20
60495;DHT22;46342;49.046;11.920;2023-03-03T18:15:58;10.40;44.50
60495;DHT22;46342;49.046;11.920;2023-03-03T18:18:48;10.30;44.50
60495;DHT22;46342;49.046;11.920;2023-03-03T18:21:31;10.20;44.60
60495;DHT22;46342;49.046;11.920;2023-03-03T18:26:50;10.00;44.70
60495;DHT22;46342;49.046;11.920;2023-03-03T18:29:24;9.90;45.70
60495;DHT22;46342;49.046;11.920;2023-03-03T18:36:56;9.60;45.80
60495;DHT22;46342;49.046;11.920;2023-03-03T18:39:44;9.60;45.80
60495;DHT22;46342;49.046;11.920;2023-03-03T18:42:33;9.50;45.90
60495;DHT22;46342;49.046;11.920;2023-03-03T18:55:49;9.10;46.00
60495;DHT22;46342;49.046;11.920;2023-03-03T19:01:05;9.00;46.10
60495;DHT22;46342;49.046;11.920;2023-03-03T19:03:54;8.90;46.10
60495;DHT22;46342;49.046;11.920;2023-03-03T19:09:04;8.80;46.20
60495;DHT22;46342;49.046;11.920;2023-03-03T19:11:51;8.70;46.20
60495;DHT22;46342;49.046;11.920;2023-03-03T19:16:55;8.60;46.30
60495;DHT22;46342;49.046;11.920;2023-03-03T19:19:29;8.50;46.20
60495;DHT22;46342;49.046;11.920;2023-03-03T19:22:24;8.40;46.30
60495;DHT22;46342;49.046;11.920;2023-03-03T19:25:13;8.40;46.40
60495;DHT22;46342;49.046;11.920;2023-03-03T19:27:58;8.30;46.40
60495;DHT22;46342;49.046;11.920;2023-03-03T19:30:56;8.20;46.50
60495;DHT22;46342;49.046;11.920;2023-03-03T19:41:48;8.00;46.60
60495;DHT22;46342;49.046;11.920;2023-03-03T19:44:37;7.90;46.70
60495;DHT22;46342;49.046;11.920;2023-03-03T19:47:35;7.80;46.60
60495;DHT22;46342;49.046;11.920;2023-03-03T19:56:16;7.60;46.70
60495;DHT22;46342;49.046;11.920;2023-03-03T19:59:12;7.50;46.80
60495;DHT22;46342;49.046;11.920;2023-03-03T20:06:51;7.40;46.90
60495;DHT22;46342;49.046;11.920;2023-03-03T20:09:39;7.30;46.80
60495;DHT22;46342;49.046;11.920;2023-03-03T20:12:29;7.30;47.00
60495;DHT22;46342;49.046;11.920;2023-03-03T20:15:16;7.20;47.00
60495;DHT22;46342;49.046;11.920;2023-03-03T20:20:30;7.10;47.00
60495;DHT22;46342;49.046;11.920;2023-03-03T20:23:18;7.00;47.00
60495;DHT22;46342;49.046;11.920;2023-03-03T20:25:53;7.00;47.70
60495;DHT22;46342;49.046;11.920;2023-03-03T20:31:38;6.90;47.20
60495;DHT22;46342;49.046;11.920;2023-03-03T20:34:13;6.80;47.10
60495;DHT22;46342;49.046;11.920;2023-03-03T20:42:13;6.60;47.10
60495;DHT22;46342;49.046;11.920;2023-03-03T20:47:49;6.50;47.50
60495;DHT22;46342;49.046;11.920;2023-03-03T20:50:43;6.40;47.50
60495;DHT22;46342;49.046;11.920;2023-03-03T20:55:44;6.30;47.20
60495;DHT22;46342;49.046;11.920;2023-03-03T20:58:36;6.20;47.20
60495;DHT22;46342;49.046;11.920;2023-03-03T21:01:13;6.20;47.70
60495;DHT22;46342;49.046;11.920;2023-03-03T21:03:41;6.10;47.60
60495;DHT22;46342;49.046;11.920;2023-03-03T21:06:11;6.10;47.40
60495;DHT22;46342;49.046;11.920;2023-03-03T21:08:52;6.00;47.40
60495;DHT22;46342;49.046;11.920;2023-03-03T21:13:49;5.90;47.60
60495;DHT22;46342;49.046;11.920;2023-03-03T21:19:06;5.80;47.80
60495;DHT22;46342;49.046;11.920;2023-03-03T21:21:43;5.80;48.10
60495;DHT22;46342;49.046;11.920;2023-03-03T21:24:12;5.70;47.90
60495;DHT22;46342;49.046;11.920;2023-03-03T21:26:59;5.70;47.70
60495;DHT22;46342;49.046;11.920;2023-03-03T21:29:34;5.70;48.10
60495;DHT22;46342;49.046;11.920;2023-03-03T21:32:02;5.60;48.00
60495;DHT22;46342;49.046;11.920;2023-03-03T21:37:10;5.50;48.00
60495;DHT22;46342;49.046;11.920;2023-03-03T21:39:41;5.50;48.10
60495;DHT22;46342;49.046;11.920;2023-03-03T21:42:15;5.40;47.90
60495;DHT22;46342;49.046;11.920;2023-03-03T21:47:13;5.30;47.90
60495;DHT22;46342;49.046;11.920;2023-03-03T21:49:40;5.30;47.90
60495;DHT22;46342;49.046;11.920;2023-03-03T21:52:07;5.30;48.00
60495;DHT22;46342;49.046;11.920;2023-03-03T21:54:33;5.20;48.00
60495;DHT22;46342;49.046;11.920;2023-03-03T21:56:58;5.20;48.00
60495;DHT22;46342;49.046;11.920;2023-03-03T21:59:24;5.20;48.70
60495;DHT22;46342;49.046;11.920;2023-03-03T22:01:49;5.10;48.00
60495;DHT22;46342;49.046;11.920;2023-03-03T22:04:15;5.10;48.10
60495;DHT22;46342;49.046;11.920;2023-03-03T22:06:41;5.00;48.00
60495;DHT22;46342;49.046;11.920;2023-03-03T22:09:06;5.00;48.10